sensor_id;sensor_type;location;lat;lon;timestamp;P1;durP1;ratioP1;P2;durP2;ratioP2
71773;SDS011;59607;52.130;5.430;2023-05-07T00:01:18;4.72;;;4.43;;
71773;SDS011;59607;52.130;5.430;2023-05-07T00:03:45;7.65;;;4.63;;
71773;SDS011;59607;52.130;5.430;2023-05-07T00:06:15;4.80;;;4.40;;
71773;SDS011;59607;52.130;5.430;2023-05-07T00:08:41;5.22;;;4.30;;
71773;SDS011;59607;52.130;5.430;2023-05-07T00:11:11;5.13;;;4.72;;
71773;SDS011;59607;52.130;5.430;2023-05-07T00:13:37;4.50;;;4.20;;
71773;SDS011;59607;52.130;5.430;2023-05-07T00:16:04;4.78;;;4.28;;
71773;SDS011;59607;52.130;5.430;2023-05-07T00:18:32;5.73;;;4.47;;
71773;SDS011;59607;52.130;5.430;2023-05-07T00:21:01;5.82;;;4.40;;
71773;SDS011;59607;52.130;5.430;2023-05-07T00:23:27;4.75;;;4.45;;
71773;SDS011;59607;52.130;5.430;2023-05-07T00:25:57;5.43;;;4.47;;
71773;SDS011;59607;52.130;5.430;2023-05-07T00:28:26;8.00;;;5.10;;
71773;SDS011;59607;52.130;5.430;2023-05-07T00:30:53;5.27;;;4.87;;
71773;SDS011;59607;52.130;5.430;2023-05-07T00:33:29;5.65;;;5.00;;
71773;SDS011;59607;52.130;5.430;2023-05-07T00:35:55;4.80;;;4.40;;
71773;SDS011;59607;52.130;5.430;2023-05-07T00:38:26;5.70;;;4.82;;
71773;SDS011;59607;52.130;5.430;2023-05-07T00:40:52;6.22;;;4.65;;
71773;SDS011;59607;52.130;5.430;2023-05-07T00:43:18;4.90;;;4.50;;
71773;SDS011;59607;52.130;5.430;2023-05-07T00:45:45;4.85;;;4.40;;
71773;SDS011;59607;52.130;5.430;2023-05-07T00:48:19;5.00;;;4.60;;
71773;SDS011;59607;52.130;5.430;2023-05-07T00:50:45;6.70;;;5.03;;
71773;SDS011;59607;52.130;5.430;2023-05-07T00:53:15;5.43;;;4.55;;
71773;SDS011;59607;52.130;5.430;2023-05-07T00:55:45;5.30;;;4.90;;
71773;SDS011;59607;52.130;5.430;2023-05-07T00:58:12;5.82;;;5.32;;
71773;SDS011;59607;52.130;5.430;2023-05-07T01:00:59;5.55;;;5.05;;
71773;SDS011;59607;52.130;5.430;2023-05-07T01:03:25;8.38;;;4.90;;
71773;SDS011;59607;52.130;5.430;2023-05-07T01:05:53;4.72;;;4.43;;
71773;SDS011;59607;52.130;5.430;2023-05-07T01:08:28;5.27;;;4.77;;
71773;SDS011;59607;52.130;5.430;2023-05-07T01:10:56;5.35;;;4.85;;
71773;SDS011;59607;52.130;5.430;2023-05-07T01:13:31;5.18;;;4.68;;
71773;SDS011;59607;52.130;5.430;2023-05-07T01:15:58;5.30;;;4.75;;
71773;SDS011;59607;52.130;5.430;2023-05-07T01:18:28;5.22;;;4.88;;
71773;SDS011;59607;52.130;5.430;2023-05-07T01:20:58;5.70;;;4.40;;
71773;SDS011;59607;52.130;5.430;2023-05-07T01:23:36;6.75;;;5.05;;
71773;SDS011;59607;52.130;5.430;2023-05-07T01:26:04;6.00;;;4.40;;
71773;SDS011;59607;52.130;5.430;2023-05-07T01:28:33;5.95;;;5.38;;
71773;SDS011;59607;52.130;5.430;2023-05-07T01:31:01;5.07;;;4.68;;
71773;SDS011;59607;52.130;5.430;2023-05-07T01:33:32;6.10;;;4.43;;
71773;SDS011;59607;52.130;5.430;2023-05-07T01:36:04;5.32;;;4.53;;
71773;SDS011;59607;52.130;5.430;2023-05-07T01:38:33;4.75;;;4.45;;
71773;SDS011;59607;52.130;5.430;2023-05-07T01:41:10;5.07;;;4.68;;
71773;SDS011;59607;52.130;5.430;2023-05-07T01:43:38;5.55;;;5.05;;
71773;SDS011;59607;52.130;5.430;2023-05-07T01:46:10;4.73;;;4.33;;
71773;SDS011;59607;52.130;5.430;2023-05-07T01:48:38;6.13;;;4.95;;
71773;SDS011;59607;52.130;5.430;2023-05-07T01:51:25;4.78;;;4.40;;
71773;SDS011;59607;52.130;5.430;2023-05-07T01:53:58;5.00;;;4.60;;
71773;SDS011;59607;52.130;5.430;2023-05-07T01:56:30;4.38;;;4.03;;
71773;SDS011;59607;52.130;5.430;2023-05-07T01:59:00;5.50;;;4.87;;
71773;SDS011;59607;52.130;5.430;2023-05-07T02:01:31;5.85;;;4.80;;
71773;SDS011;59607;52.130;5.430;2023-05-07T02:04:00;5.18;;;4.68;;
71773;SDS011;59607;52.130;5.430;2023-05-07T02:06:27;5.30;;;4.80;;
71773;SDS011;59607;52.130;5.430;2023-05-07T02:08:56;5.15;;;4.75;;
71773;SDS011;59607;52.130;5.430;2023-05-07T02:11:22;6.37;;;4.70;;
71773;SDS011;59607;52.130;5.430;2023-05-07T02:13:48;6.38;;;5.47;;
71773;SDS011;59607;52.130;5.430;2023-05-07T02:16:15;5.30;;;4.80;;
71773;SDS011;59607;52.130;5.430;2023-05-07T02:18:46;4.88;;;4.47;;
71773;SDS011;59607;52.130;5.430;2023-05-07T02:21:12;5.35;;;4.85;;
71773;SDS011;59607;52.130;5.430;2023-05-07T02:23:41;5.50;;;5.00;;
71773;SDS011;59607;52.130;5.430;2023-05-07T02:26:12;5.05;;;4.65;;
71773;SDS011;59607;52.130;5.430;2023-05-07T02:28:38;5.60;;;5.05;;
71773;SDS011;59607;52.130;5.430;2023-05-07T02:31:13;4.60;;;4.30;;
71773;SDS011;59607;52.130;5.430;2023-05-07T02:33:40;5.57;;;5.07;;
71773;SDS011;59607;52.130;5.430;2023-05-07T02:36:07;5.77;;;5.17;;
71773;SDS011;59607;52.130;5.430;2023-05-07T02:38:45;9.93;;;5.43;;
71773;SDS011;59607;52.130;5.430;2023-05-07T02:41:14;5.13;;;4.72;;
71773;SDS011;59607;52.130;5.430;2023-05-07T02:43:48;5.80;;;5.25;;
71773;SDS011;59607;52.130;5.430;2023-05-07T02:46:21;5.82;;;5.32;;
71773;SDS011;59607;52.130;5.430;2023-05-07T02:48:48;5.80;;;5.30;;
71773;SDS011;59607;52.130;5.430;2023-05-07T02:51:14;6.50;;;5.90;;
71773;SDS011;59607;52.130;5.430;2023-05-07T02:53:46;6.00;;;5.50;;
71773;SDS011;59607;52.130;5.430;2023-05-07T02:56:13;6.22;;;5.63;;
71773;SDS011;59607;52.130;5.430;2023-05-07T02:58:42;6.95;;;6.45;;
71773;SDS011;59607;52.130;5.430;2023-05-07T03:01:10;6.40;;;5.90;;
71773;SDS011;59607;52.130;5.430;2023-05-07T03:03:36;6.60;;;6.00;;
71773;SDS011;59607;52.130;5.430;2023-05-07T03:06:06;6.10;;;5.50;;
71773;SDS011;59607;52.130;5.430;2023-05-07T03:08:33;5.88;;;5.38;;
71773;SDS011;59607;52.130;5.430;2023-05-07T03:11:00;6.80;;;6.20;;
71773;SDS011;59607;52.130;5.430;2023-05-07T03:13:26;6.90;;;6.10;;
71773;SDS011;59607;52.130;5.430;2023-05-07T03:15:59;6.85;;;6.25;;
71773;SDS011;59607;52.130;5.430;2023-05-07T03:18:26;7.65;;;6.10;;
71773;SDS011;59607;52.130;5.430;2023-05-07T03:20:54;6.53;;;5.93;;
71773;SDS011;59607;52.130;5.430;2023-05-07T03:23:23;7.13;;;6.28;;
71773;SDS011;59607;52.130;5.430;2023-05-07T03:25:51;7.63;;;6.23;;
71773;SDS011;59607;52.130;5.430;2023-05-07T03:28:20;9.50;;;6.72;;
71773;SDS011;59607;52.130;5.430;2023-05-07T03:30:49;7.22;;;6.63;;
71773;SDS011;59607;52.130;5.430;2023-05-07T03:33:16;6.78;;;6.15;;
71773;SDS011;59607;52.130;5.430;2023-05-07T03:35:48;6.70;;;6.10;;
71773;SDS011;59607;52.130;5.430;2023-05-07T03:38:15;6.30;;;5.70;;
71773;SDS011;59607;52.130;5.430;2023-05-07T03:40:41;7.00;;;6.25;;
71773;SDS011;59607;52.130;5.430;2023-05-07T03:43:14;6.45;;;5.80;;
71773;SDS011;59607;52.130;5.430;2023-05-07T03:45:40;6.68;;;6.13;;
71773;SDS011;59607;52.130;5.430;2023-05-07T03:48:16;7.07;;;5.88;;
71773;SDS011;59607;52.130;5.430;2023-05-07T03:50:42;6.90;;;6.27;;
71773;SDS011;59607;52.130;5.430;2023-05-07T03:53:08;7.65;;;6.15;;
71773;SDS011;59607;52.130;5.430;2023-05-07T03:55:41;7.53;;;7.03;;
71773;SDS011;59607;52.130;5.430;2023-05-07T03:58:07;6.93;;;6.43;;
71773;SDS011;59607;52.130;5.430;2023-05-07T04:00:44;7.47;;;6.78;;
71773;SDS011;59607;52.130;5.430;2023-05-07T04:03:10;6.83;;;6.07;;
71773;SDS011;59607;52.130;5.430;2023-05-07T04:05:40;6.97;;;6.38;;
71773;SDS011;59607;52.130;5.430;2023-05-07T04:08:14;7.70;;;7.00;;
71773;SDS011;59607;52.130;5.430;2023-05-07T04:10:40;7.50;;;6.85;;
71773;SDS011;59607;52.130;5.430;2023-05-07T04:13:17;7.40;;;6.35;;
71773;SDS011;59607;52.130;5.430;2023-05-07T04:15:46;7.43;;;6.70;;
71773;SDS011;59607;52.130;5.430;2023-05-07T04:18:16;6.85;;;6.13;;
71773;SDS011;59607;52.130;5.430;2023-05-07T04:20:48;7.10;;;6.50;;
71773;SDS011;59607;52.130;5.430;2023-05-07T04:23:21;8.18;;;7.38;;
71773;SDS011;59607;52.130;5.430;2023-05-07T04:25:50;7.63;;;7.05;;
71773;SDS011;59607;52.130;5.430;2023-05-07T04:28:17;7.30;;;6.70;;
71773;SDS011;59607;52.130;5.430;2023-05-07T04:30:44;8.27;;;7.47;;
71773;SDS011;59607;52.130;5.430;2023-05-07T04:33:14;8.90;;;7.15;;
71773;SDS011;59607;52.130;5.430;2023-05-07T04:35:45;7.43;;;6.82;;
71773;SDS011;59607;52.130;5.430;2023-05-07T04:38:12;7.65;;;7.13;;
71773;SDS011;59607;52.130;5.430;2023-05-07T04:40:44;8.27;;;7.47;;
71773;SDS011;59607;52.130;5.430;2023-05-07T04:43:10;9.35;;;7.03;;
71773;SDS011;59607;52.130;5.430;2023-05-07T04:45:37;8.68;;;7.82;;
71773;SDS011;59607;52.130;5.430;2023-05-07T04:48:09;8.68;;;7.65;;
71773;SDS011;59607;52.130;5.430;2023-05-07T04:50:36;8.55;;;7.70;;
71773;SDS011;59607;52.130;5.430;2023-05-07T04:53:05;8.20;;;7.40;;
71773;SDS011;59607;52.130;5.430;2023-05-07T04:55:32;11.52;;;7.70;;
71773;SDS011;59607;52.130;5.430;2023-05-07T04:57:59;9.13;;;7.50;;
71773;SDS011;59607;52.130;5.430;2023-05-07T05:00:31;8.40;;;7.40;;
71773;SDS011;59607;52.130;5.430;2023-05-07T05:03:01;8.27;;;7.47;;
71773;SDS011;59607;52.130;5.430;2023-05-07T05:05:28;8.87;;;7.70;;
71773;SDS011;59607;52.130;5.430;2023-05-07T05:08:01;9.48;;;7.88;;
71773;SDS011;59607;52.130;5.430;2023-05-07T05:10:27;8.80;;;8.00;;
71773;SDS011;59607;52.130;5.430;2023-05-07T05:12:56;9.45;;;7.30;;
71773;SDS011;59607;52.130;5.430;2023-05-07T05:15:23;8.20;;;7.50;;
71773;SDS011;59607;52.130;5.430;2023-05-07T05:17:49;9.03;;;7.10;;
71773;SDS011;59607;52.130;5.430;2023-05-07T05:20:16;9.80;;;7.38;;
71773;SDS011;59607;52.130;5.430;2023-05-07T05:22:48;8.10;;;7.28;;
71773;SDS011;59607;52.130;5.430;2023-05-07T05:25:14;9.55;;;8.65;;
71773;SDS011;59607;52.130;5.430;2023-05-07T05:27:41;8.93;;;8.13;;
71773;SDS011;59607;52.130;5.430;2023-05-07T05:30:11;9.27;;;7.67;;
71773;SDS011;59607;52.130;5.430;2023-05-07T05:32:38;9.13;;;7.97;;
71773;SDS011;59607;52.130;5.430;2023-05-07T05:35:08;9.18;;;8.27;;
71773;SDS011;59607;52.130;5.430;2023-05-07T05:37:35;9.73;;;7.97;;
71773;SDS011;59607;52.130;5.430;2023-05-07T05:40:01;9.18;;;8.30;;
71773;SDS011;59607;52.130;5.430;2023-05-07T05:42:28;9.73;;;8.73;;
71773;SDS011;59607;52.130;5.430;2023-05-07T05:44:54;8.68;;;7.93;;
71773;SDS011;59607;52.130;5.430;2023-05-07T05:47:21;10.30;;;9.40;;
71773;SDS011;59607;52.130;5.430;2023-05-07T05:49:48;9.15;;;8.35;;
71773;SDS011;59607;52.130;5.430;2023-05-07T05:52:15;9.52;;;8.75;;
71773;SDS011;59607;52.130;5.430;2023-05-07T05:54:45;9.77;;;8.77;;
71773;SDS011;59607;52.130;5.430;2023-05-07T05:57:11;9.82;;;8.75;;
71773;SDS011;59607;52.130;5.430;2023-05-07T05:59:39;10.30;;;9.10;;
71773;SDS011;59607;52.130;5.430;2023-05-07T06:02:09;10.15;;;9.23;;
71773;SDS011;59607;52.130;5.430;2023-05-07T06:04:35;10.95;;;9.15;;
71773;SDS011;59607;52.130;5.430;2023-05-07T06:07:04;9.80;;;8.87;;
71773;SDS011;59607;52.130;5.430;2023-05-07T06:09:32;10.32;;;9.23;;
71773;SDS011;59607;52.130;5.430;2023-05-07T06:11:58;9.85;;;8.85;;
71773;SDS011;59607;52.130;5.430;2023-05-07T06:14:28;10.23;;;9.38;;
71773;SDS011;59607;52.130;5.430;2023-05-07T06:17:01;9.63;;;8.70;;
71773;SDS011;59607;52.130;5.430;2023-05-07T06:19:28;9.13;;;8.17;;
71773;SDS011;59607;52.130;5.430;2023-05-07T06:21:54;10.38;;;9.38;;
71773;SDS011;59607;52.130;5.430;2023-05-07T06:24:25;10.32;;;9.43;;
71773;SDS011;59607;52.130;5.430;2023-05-07T06:26:55;10.90;;;9.52;;
71773;SDS011;59607;52.130;5.430;2023-05-07T06:29:25;10.50;;;9.50;;
71773;SDS011;59607;52.130;5.430;2023-05-07T06:32:05;9.77;;;9.07;;
71773;SDS011;59607;52.130;5.430;2023-05-07T06:34:36;10.43;;;9.50;;
71773;SDS011;59607;52.130;5.430;2023-05-07T06:37:03;11.23;;;10.23;;
71773;SDS011;59607;52.130;5.430;2023-05-07T06:39:32;11.18;;;9.52;;
71773;SDS011;59607;52.130;5.430;2023-05-07T06:42:00;10.70;;;9.50;;
71773;SDS011;59607;52.130;5.430;2023-05-07T06:44:31;10.57;;;9.47;;
71773;SDS011;59607;52.130;5.430;2023-05-07T06:46:58;10.23;;;9.32;;
71773;SDS011;59607;52.130;5.430;2023-05-07T06:49:25;10.98;;;10.02;;
71773;SDS011;59607;52.130;5.430;2023-05-07T06:51:57;10.75;;;9.75;;
71773;SDS011;59607;52.130;5.430;2023-05-07T06:54:23;10.05;;;9.35;;
71773;SDS011;59607;52.130;5.430;2023-05-07T06:56:53;11.70;;;10.63;;
71773;SDS011;59607;52.130;5.430;2023-05-07T06:59:19;11.23;;;10.10;;
71773;SDS011;59607;52.130;5.430;2023-05-07T07:01:45;11.50;;;10.27;;
71773;SDS011;59607;52.130;5.430;2023-05-07T07:04:12;10.85;;;10.05;;
71773;SDS011;59607;52.130;5.430;2023-05-07T07:06:56;11.18;;;10.18;;
71773;SDS011;59607;52.130;5.430;2023-05-07T07:09:26;10.37;;;9.47;;
71773;SDS011;59607;52.130;5.430;2023-05-07T07:11:52;11.52;;;9.52;;
71773;SDS011;59607;52.130;5.430;2023-05-07T07:14:18;11.73;;;10.63;;
71773;SDS011;59607;52.130;5.430;2023-05-07T07:16:49;11.07;;;10.07;;
71773;SDS011;59607;52.130;5.430;2023-05-07T07:19:15;11.13;;;10.02;;
71773;SDS011;59607;52.130;5.430;2023-05-07T07:21:42;10.80;;;9.83;;
71773;SDS011;59607;52.130;5.430;2023-05-07T07:24:14;11.27;;;10.27;;
71773;SDS011;59607;52.130;5.430;2023-05-07T07:26:47;11.07;;;10.10;;
71773;SDS011;59607;52.130;5.430;2023-05-07T07:29:24;9.50;;;8.75;;
71773;SDS011;59607;52.130;5.430;2023-05-07T07:32:06;15.93;;;11.30;;
71773;SDS011;59607;52.130;5.430;2023-05-07T07:34:46;9.73;;;9.00;;
71773;SDS011;59607;52.130;5.430;2023-05-07T07:37:16;10.80;;;9.70;;
71773;SDS011;59607;52.130;5.430;2023-05-07T07:39:42;10.68;;;9.68;;
71773;SDS011;59607;52.130;5.430;2023-05-07T07:42:08;10.18;;;9.32;;
71773;SDS011;59607;52.130;5.430;2023-05-07T07:44:35;10.68;;;9.82;;
71773;SDS011;59607;52.130;5.430;2023-05-07T07:47:05;9.73;;;9.00;;
71773;SDS011;59607;52.130;5.430;2023-05-07T07:49:32;10.43;;;9.57;;
71773;SDS011;59607;52.130;5.430;2023-05-07T07:51:58;11.10;;;10.13;;
71773;SDS011;59607;52.130;5.430;2023-05-07T07:54:42;10.30;;;9.40;;
71773;SDS011;59607;52.130;5.430;2023-05-07T07:57:12;10.68;;;9.88;;
71773;SDS011;59607;52.130;5.430;2023-05-07T07:59:38;10.80;;;9.77;;
71773;SDS011;59607;52.130;5.430;2023-05-07T08:02:05;11.48;;;10.30;;
71773;SDS011;59607;52.130;5.430;2023-05-07T08:04:38;10.15;;;9.27;;
71773;SDS011;59607;52.130;5.430;2023-05-07T08:07:04;10.32;;;9.45;;
71773;SDS011;59607;52.130;5.430;2023-05-07T08:09:46;10.63;;;9.80;;
71773;SDS011;59607;52.130;5.430;2023-05-07T08:12:16;10.70;;;9.80;;
71773;SDS011;59607;52.130;5.430;2023-05-07T08:14:45;10.73;;;9.93;;
71773;SDS011;59607;52.130;5.430;2023-05-07T08:17:13;10.65;;;9.85;;
71773;SDS011;59607;52.130;5.430;2023-05-07T08:19:45;10.55;;;9.57;;
71773;SDS011;59607;52.130;5.430;2023-05-07T08:22:11;11.35;;;10.30;;
71773;SDS011;59607;52.130;5.430;2023-05-07T08:24:48;11.47;;;10.37;;
71773;SDS011;59607;52.130;5.430;2023-05-07T08:27:15;14.27;;;11.10;;
71773;SDS011;59607;52.130;5.430;2023-05-07T08:29:50;11.27;;;10.30;;
71773;SDS011;59607;52.130;5.430;2023-05-07T08:32:16;12.18;;;11.18;;
71773;SDS011;59607;52.130;5.430;2023-05-07T08:34:48;11.80;;;10.77;;
71773;SDS011;59607;52.130;5.430;2023-05-07T08:37:17;11.40;;;10.40;;
71773;SDS011;59607;52.130;5.430;2023-05-07T08:39:43;12.55;;;11.50;;
71773;SDS011;59607;52.130;5.430;2023-05-07T08:42:17;12.68;;;11.52;;
71773;SDS011;59607;52.130;5.430;2023-05-07T08:44:47;12.10;;;11.00;;
71773;SDS011;59607;52.130;5.430;2023-05-07T08:47:22;12.27;;;10.82;;
71773;SDS011;59607;52.130;5.430;2023-05-07T08:49:56;12.47;;;11.27;;
71773;SDS011;59607;52.130;5.430;2023-05-07T08:52:26;12.13;;;11.15;;
71773;SDS011;59607;52.130;5.430;2023-05-07T08:54:52;11.68;;;10.68;;
71773;SDS011;59607;52.130;5.430;2023-05-07T08:57:27;12.45;;;11.35;;
71773;SDS011;59607;52.130;5.430;2023-05-07T08:59:54;11.60;;;10.55;;
71773;SDS011;59607;52.130;5.430;2023-05-07T09:02:23;12.43;;;11.33;;
71773;SDS011;59607;52.130;5.430;2023-05-07T09:04:49;12.70;;;11.60;;
71773;SDS011;59607;52.130;5.430;2023-05-07T09:07:16;13.20;;;11.75;;
71773;SDS011;59607;52.130;5.430;2023-05-07T09:09:43;12.35;;;11.20;;
71773;SDS011;59607;52.130;5.430;2023-05-07T09:12:13;12.77;;;11.68;;
71773;SDS011;59607;52.130;5.430;2023-05-07T09:14:40;13.17;;;11.87;;
71773;SDS011;59607;52.130;5.430;2023-05-07T09:17:06;14.48;;;13.07;;
71773;SDS011;59607;52.130;5.430;2023-05-07T09:19:38;13.25;;;12.05;;
71773;SDS011;59607;52.130;5.430;2023-05-07T09:22:05;12.82;;;11.73;;
71773;SDS011;59607;52.130;5.430;2023-05-07T09:24:49;12.50;;;11.38;;
71773;SDS011;59607;52.130;5.430;2023-05-07T09:27:31;12.90;;;11.43;;
71773;SDS011;59607;52.130;5.430;2023-05-07T09:30:07;13.15;;;11.95;;
71773;SDS011;59607;52.130;5.430;2023-05-07T09:32:40;12.88;;;11.73;;
71773;SDS011;59607;52.130;5.430;2023-05-07T09:35:14;11.65;;;10.75;;
71773;SDS011;59607;52.130;5.430;2023-05-07T09:37:53;12.25;;;11.25;;
71773;SDS011;59607;52.130;5.430;2023-05-07T09:43:01;11.90;;;10.90;;
71773;SDS011;59607;52.130;5.430;2023-05-07T09:45:39;12.13;;;10.95;;
71773;SDS011;59607;52.130;5.430;2023-05-07T09:48:22;12.02;;;10.93;;
71773;SDS011;59607;52.130;5.430;2023-05-07T09:51:29;11.95;;;10.95;;
71773;SDS011;59607;52.130;5.430;2023-05-07T09:54:03;11.67;;;10.67;;
71773;SDS011;59607;52.130;5.430;2023-05-07T09:56:39;12.50;;;11.32;;
71773;SDS011;59607;52.130;5.430;2023-05-07T09:59:07;12.75;;;11.57;;
71773;SDS011;59607;52.130;5.430;2023-05-07T10:01:36;13.02;;;11.68;;
71773;SDS011;59607;52.130;5.430;2023-05-07T10:04:03;12.82;;;11.70;;
71773;SDS011;59607;52.130;5.430;2023-05-07T10:06:31;14.53;;;12.10;;
71773;SDS011;59607;52.130;5.430;2023-05-07T10:09:06;12.60;;;11.50;;
71773;SDS011;59607;52.130;5.430;2023-05-07T10:11:33;13.57;;;12.10;;
71773;SDS011;59607;52.130;5.430;2023-05-07T10:14:08;12.85;;;11.70;;
71773;SDS011;59607;52.130;5.430;2023-05-07T10:16:36;12.82;;;11.40;;
71773;SDS011;59607;52.130;5.430;2023-05-07T10:19:12;14.27;;;12.50;;
71773;SDS011;59607;52.130;5.430;2023-05-07T10:21:40;13.18;;;11.90;;
71773;SDS011;59607;52.130;5.430;2023-05-07T10:24:20;12.63;;;11.50;;
71773;SDS011;59607;52.130;5.430;2023-05-07T10:26:58;14.07;;;12.65;;
71773;SDS011;59607;52.130;5.430;2023-05-07T10:34:53;13.15;;;11.13;;
71773;SDS011;59607;52.130;5.430;2023-05-07T10:37:22;13.20;;;11.55;;
71773;SDS011;59607;52.130;5.430;2023-05-07T10:39:49;12.52;;;11.23;;
71773;SDS011;59607;52.130;5.430;2023-05-07T10:42:18;11.73;;;10.57;;
71773;SDS011;59607;52.130;5.430;2023-05-07T10:44:46;12.50;;;11.27;;
71773;SDS011;59607;52.130;5.430;2023-05-07T10:47:13;12.85;;;11.43;;
71773;SDS011;59607;52.130;5.430;2023-05-07T10:52:22;12.40;;;11.15;;
71773;SDS011;59607;52.130;5.430;2023-05-07T10:57:54;13.97;;;11.47;;
71773;SDS011;59607;52.130;5.430;2023-05-07T11:03:04;13.23;;;11.00;;
71773;SDS011;59607;52.130;5.430;2023-05-07T11:05:38;11.60;;;10.40;;
71773;SDS011;59607;52.130;5.430;2023-05-07T11:08:05;14.85;;;11.88;;
71773;SDS011;59607;52.130;5.430;2023-05-07T11:13:44;12.85;;;11.65;;
71773;SDS011;59607;52.130;5.430;2023-05-07T11:16:21;12.52;;;11.40;;
71773;SDS011;59607;52.130;5.430;2023-05-07T11:18:54;13.98;;;11.48;;
71773;SDS011;59607;52.130;5.430;2023-05-07T11:21:42;12.63;;;11.15;;
71773;SDS011;59607;52.130;5.430;2023-05-07T11:24:09;13.20;;;11.93;;
71773;SDS011;59607;52.130;5.430;2023-05-07T11:26:52;17.05;;;12.10;;
71773;SDS011;59607;52.130;5.430;2023-05-07T11:29:19;12.75;;;11.55;;
71773;SDS011;59607;52.130;5.430;2023-05-07T11:32:05;14.07;;;11.80;;
71773;SDS011;59607;52.130;5.430;2023-05-07T11:34:34;13.20;;;11.90;;
71773;SDS011;59607;52.130;5.430;2023-05-07T11:37:01;12.90;;;11.60;;
71773;SDS011;59607;52.130;5.430;2023-05-07T11:39:33;11.95;;;10.95;;
71773;SDS011;59607;52.130;5.430;2023-05-07T11:42:03;13.13;;;11.80;;
71773;SDS011;59607;52.130;5.430;2023-05-07T11:44:43;13.52;;;12.23;;
71773;SDS011;59607;52.130;5.430;2023-05-07T11:47:10;12.30;;;11.20;;
71773;SDS011;59607;52.130;5.430;2023-05-07T11:49:45;12.73;;;11.63;;
71773;SDS011;59607;52.130;5.430;2023-05-07T11:52:24;13.30;;;11.95;;
71773;SDS011;59607;52.130;5.430;2023-05-07T11:54:51;14.32;;;13.05;;
71773;SDS011;59607;52.130;5.430;2023-05-07T11:57:19;13.68;;;12.38;;
71773;SDS011;59607;52.130;5.430;2023-05-07T11:59:52;13.80;;;12.52;;
71773;SDS011;59607;52.130;5.430;2023-05-07T12:02:32;13.30;;;12.20;;
71773;SDS011;59607;52.130;5.430;2023-05-07T12:05:00;15.05;;;13.43;;
71773;SDS011;59607;52.130;5.430;2023-05-07T12:07:35;14.13;;;12.65;;
71773;SDS011;59607;52.130;5.430;2023-05-07T12:10:11;15.75;;;13.27;;
71773;SDS011;59607;52.130;5.430;2023-05-07T12:12:40;12.27;;;11.23;;
71773;SDS011;59607;52.130;5.430;2023-05-07T12:15:13;13.70;;;12.50;;
71773;SDS011;59607;52.130;5.430;2023-05-07T12:17:43;13.18;;;11.88;;
71773;SDS011;59607;52.130;5.430;2023-05-07T12:20:10;13.00;;;11.80;;
71773;SDS011;59607;52.130;5.430;2023-05-07T12:22:40;13.43;;;12.07;;
71773;SDS011;59607;52.130;5.430;2023-05-07T12:25:07;13.40;;;11.52;;
71773;SDS011;59607;52.130;5.430;2023-05-07T12:27:36;13.10;;;11.77;;
71773;SDS011;59607;52.130;5.430;2023-05-07T12:30:05;12.93;;;11.73;;
71773;SDS011;59607;52.130;5.430;2023-05-07T12:32:32;13.88;;;11.60;;
71773;SDS011;59607;52.130;5.430;2023-05-07T12:35:25;11.98;;;10.98;;
71773;SDS011;59607;52.130;5.430;2023-05-07T12:37:56;11.00;;;9.90;;
71773;SDS011;59607;52.130;5.430;2023-05-07T12:40:45;14.47;;;9.43;;
71773;SDS011;59607;52.130;5.430;2023-05-07T12:43:20;10.73;;;9.73;;
71773;SDS011;59607;52.130;5.430;2023-05-07T12:45:55;9.75;;;9.05;;
71773;SDS011;59607;52.130;5.430;2023-05-07T12:48:29;13.73;;;10.43;;
71773;SDS011;59607;52.130;5.430;2023-05-07T12:51:12;10.15;;;9.20;;
71773;SDS011;59607;52.130;5.430;2023-05-07T12:53:42;8.57;;;7.77;;
71773;SDS011;59607;52.130;5.430;2023-05-07T12:56:09;8.90;;;8.00;;
71773;SDS011;59607;52.130;5.430;2023-05-07T12:58:42;8.82;;;7.95;;
71773;SDS011;59607;52.130;5.430;2023-05-07T13:01:09;9.48;;;8.57;;
71773;SDS011;59607;52.130;5.430;2023-05-07T13:03:38;8.52;;;7.72;;
71773;SDS011;59607;52.130;5.430;2023-05-07T13:06:08;8.33;;;7.57;;
71773;SDS011;59607;52.130;5.430;2023-05-07T13:08:37;8.02;;;7.25;;
71773;SDS011;59607;52.130;5.430;2023-05-07T13:11:08;7.30;;;6.68;;
71773;SDS011;59607;52.130;5.430;2023-05-07T13:13:35;7.78;;;6.72;;
71773;SDS011;59607;52.130;5.430;2023-05-07T13:16:11;8.40;;;7.70;;
71773;SDS011;59607;52.130;5.430;2023-05-07T13:18:38;10.03;;;6.70;;
71773;SDS011;59607;52.130;5.430;2023-05-07T13:21:20;9.18;;;7.10;;
71773;SDS011;59607;52.130;5.430;2023-05-07T13:23:50;8.35;;;7.55;;
71773;SDS011;59607;52.130;5.430;2023-05-07T13:26:16;8.15;;;7.45;;
71773;SDS011;59607;52.130;5.430;2023-05-07T13:28:53;8.45;;;7.70;;
71773;SDS011;59607;52.130;5.430;2023-05-07T13:31:24;10.20;;;8.43;;
71773;SDS011;59607;52.130;5.430;2023-05-07T13:33:50;11.00;;;9.18;;
71773;SDS011;59607;52.130;5.430;2023-05-07T13:36:21;11.20;;;10.20;;
71773;SDS011;59607;52.130;5.430;2023-05-07T13:38:47;11.70;;;9.68;;
71773;SDS011;59607;52.130;5.430;2023-05-07T13:41:14;10.93;;;9.82;;
71773;SDS011;59607;52.130;5.430;2023-05-07T13:43:46;8.80;;;8.10;;
71773;SDS011;59607;52.130;5.430;2023-05-07T13:46:12;9.43;;;7.90;;
71773;SDS011;59607;52.130;5.430;2023-05-07T13:48:42;10.35;;;9.45;;
71773;SDS011;59607;52.130;5.430;2023-05-07T13:51:09;11.00;;;9.60;;
71773;SDS011;59607;52.130;5.430;2023-05-07T13:53:35;10.85;;;9.77;;
71773;SDS011;59607;52.130;5.430;2023-05-07T13:56:05;11.70;;;10.50;;
71773;SDS011;59607;52.130;5.430;2023-05-07T13:58:34;12.15;;;10.95;;
71773;SDS011;59607;52.130;5.430;2023-05-07T14:01:19;11.52;;;10.43;;
71773;SDS011;59607;52.130;5.430;2023-05-07T14:03:52;12.07;;;10.70;;
71773;SDS011;59607;52.130;5.430;2023-05-07T14:06:26;11.63;;;10.50;;
71773;SDS011;59607;52.130;5.430;2023-05-07T14:08:55;11.73;;;10.63;;
71773;SDS011;59607;52.130;5.430;2023-05-07T14:11:25;11.25;;;9.57;;
71773;SDS011;59607;52.130;5.430;2023-05-07T14:13:52;10.85;;;9.85;;
71773;SDS011;59607;52.130;5.430;2023-05-07T14:16:23;11.35;;;10.45;;
71773;SDS011;59607;52.130;5.430;2023-05-07T14:18:50;10.90;;;9.80;;
71773;SDS011;59607;52.130;5.430;2023-05-07T14:21:16;15.53;;;11.73;;
71773;SDS011;59607;52.130;5.430;2023-05-07T14:23:47;11.63;;;10.43;;
71773;SDS011;59607;52.130;5.430;2023-05-07T14:26:14;11.60;;;10.52;;
71773;SDS011;59607;52.130;5.430;2023-05-07T14:28:40;12.85;;;8.98;;
71773;SDS011;59607;52.130;5.430;2023-05-07T14:31:16;8.43;;;7.72;;
71773;SDS011;59607;52.130;5.430;2023-05-07T14:33:49;15.30;;;10.53;;
71773;SDS011;59607;52.130;5.430;2023-05-07T14:36:26;11.65;;;10.40;;
71773;SDS011;59607;52.130;5.430;2023-05-07T14:38:56;11.25;;;10.15;;
71773;SDS011;59607;52.130;5.430;2023-05-07T14:41:25;11.13;;;9.93;;
71773;SDS011;59607;52.130;5.430;2023-05-07T14:43:54;9.70;;;8.98;;
71773;SDS011;59607;52.130;5.430;2023-05-07T14:46:24;9.90;;;9.00;;
71773;SDS011;59607;52.130;5.430;2023-05-07T14:48:55;10.20;;;9.20;;
71773;SDS011;59607;52.130;5.430;2023-05-07T14:51:22;9.98;;;8.98;;
71773;SDS011;59607;52.130;5.430;2023-05-07T14:53:50;9.85;;;8.77;;
71773;SDS011;59607;52.130;5.430;2023-05-07T14:56:20;10.40;;;8.45;;
71773;SDS011;59607;52.130;5.430;2023-05-07T14:58:54;9.13;;;8.33;;
71773;SDS011;59607;52.130;5.430;2023-05-07T15:01:25;9.60;;;8.77;;
71773;SDS011;59607;52.130;5.430;2023-05-07T15:03:55;10.68;;;9.55;;
71773;SDS011;59607;52.130;5.430;2023-05-07T15:06:27;11.15;;;9.15;;
71773;SDS011;59607;52.130;5.430;2023-05-07T15:08:55;9.75;;;8.75;;
71773;SDS011;59607;52.130;5.430;2023-05-07T15:11:22;9.10;;;8.20;;
71773;SDS011;59607;52.130;5.430;2023-05-07T15:14:09;8.80;;;8.00;;